createdAt,value
2023-03-27T00:01:36.599Z,0.98
2023-03-27T00:04:04.753Z,1.20
2023-03-27T00:06:34.451Z,1.20
2023-03-27T00:09:03.876Z,1.38
2023-03-27T00:11:33.359Z,1.35
2023-03-27T00:14:01.947Z,1.30
2023-03-27T00:16:30.566Z,2.47
2023-03-27T00:18:58.918Z,2.80
2023-03-27T00:21:27.141Z,2.88
2023-03-27T00:23:56.480Z,4.55
2023-03-27T00:26:24.653Z,3.35
2023-03-27T00:28:54.786Z,3.22
2023-03-27T00:31:23.168Z,3.50
2023-03-27T00:33:51.593Z,3.05
2023-03-27T00:36:19.703Z,3.03
2023-03-27T00:38:47.752Z,2.50
2023-03-27T00:41:16.056Z,2.88
2023-03-27T00:43:44.993Z,3.17
2023-03-27T00:46:40.683Z,2.95
2023-03-27T00:49:12.942Z,2.70
2023-03-27T00:51:43.705Z,2.95
2023-03-27T00:54:16.379Z,2.70
2023-03-27T00:56:45.629Z,1.90
2023-03-27T00:59:19.373Z,1.92
2023-03-27T01:01:49.354Z,2.17
2023-03-27T01:04:21.554Z,2.60
2023-03-27T01:06:54.904Z,1.98
2023-03-27T01:09:23.119Z,2.30
2023-03-27T01:12:07.698Z,1.55
2023-03-27T01:14:46.851Z,1.20
2023-03-27T01:17:31.165Z,1.40
2023-03-27T01:20:32.892Z,1.83
2023-03-27T01:23:36.293Z,1.65
2023-03-27T01:26:51.530Z,1.00
2023-03-27T01:29:30.116Z,1.75
2023-03-27T01:32:27.689Z,1.40
2023-03-27T01:35:22.059Z,1.60
2023-03-27T01:38:04.036Z,2.40
2023-03-27T01:40:36.604Z,1.42
2023-03-27T01:43:08.674Z,1.98
2023-03-27T01:45:43.820Z,1.70
2023-03-27T01:48:16.878Z,3.65
2023-03-27T01:50:49.590Z,4.72
2023-03-27T01:53:23.757Z,5.82
2023-03-27T01:55:58.325Z,6.70
2023-03-27T01:58:31.422Z,6.53
2023-03-27T02:01:03.238Z,5.78
2023-03-27T02:03:35.304Z,7.28
2023-03-27T02:06:09.312Z,7.47
2023-03-27T02:08:44.935Z,7.22
2023-03-27T02:11:18.967Z,6.68
2023-03-27T02:13:51.468Z,7.72
2023-03-27T02:16:24.770Z,7.90
2023-03-27T02:18:58.250Z,8.55
2023-03-27T02:21:27.015Z,8.63
2023-03-27T02:23:56.632Z,10.05
2023-03-27T02:26:26.456Z,8.13
2023-03-27T02:29:06.132Z,10.18
2023-03-27T02:31:50.392Z,9.43
2023-03-27T02:34:40.611Z,12.25
2023-03-27T02:37:19.770Z,8.32
2023-03-27T02:40:15.372Z,6.00
2023-03-27T02:42:59.306Z,6.95
2023-03-27T02:45:32.571Z,5.35
2023-03-27T02:48:07.712Z,6.45
2023-03-27T02:50:41.994Z,5.00
2023-03-27T02:53:17.618Z,4.05
2023-03-27T02:55:53.334Z,5.32
2023-03-27T02:58:30.910Z,4.00
2023-03-27T03:01:09.460Z,3.35
2023-03-27T03:04:04.943Z,3.58
2023-03-27T03:06:46.213Z,3.85
2023-03-27T03:09:15.017Z,4.22
2023-03-27T03:11:48.288Z,3.25
2023-03-27T03:14:20.872Z,3.75
2023-03-27T03:16:49.328Z,2.80
2023-03-27T03:19:17.727Z,3.53
2023-03-27T03:21:49.443Z,3.30
2023-03-27T03:24:19.285Z,4.38
2023-03-27T03:26:50.149Z,3.45
2023-03-27T03:29:20.778Z,3.05
2023-03-27T03:32:08.194Z,2.53
2023-03-27T03:34:37.412Z,2.72
2023-03-27T03:37:05.525Z,3.08
2023-03-27T03:39:33.739Z,3.72
2023-03-27T03:42:01.995Z,4.03
2023-03-27T03:44:31.850Z,3.97
2023-03-27T03:47:03.035Z,3.35
2023-03-27T03:49:31.788Z,4.05
2023-03-27T03:52:04.371Z,2.80
2023-03-27T03:54:34.093Z,2.67
2023-03-27T03:57:03.396Z,1.98
2023-03-27T03:59:34.874Z,3.03
2023-03-27T04:02:29.802Z,2.30
2023-03-27T04:05:08.595Z,2.95
2023-03-27T04:07:41.364Z,3.15
2023-03-27T04:10:32.816Z,3.33
2023-03-27T04:13:04.604Z,3.30
2023-03-27T04:15:40.689Z,3.35
2023-03-27T04:18:32.901Z,2.78
2023-03-27T04:21:05.754Z,4.03
2023-03-27T04:23:33.993Z,3.05
2023-03-27T04:26:04.068Z,2.50
2023-03-27T04:28:55.476Z,3.80
2023-03-27T04:31:46.834Z,3.33
2023-03-27T04:34:33.859Z,2.45
2023-03-27T04:37:28.867Z,2.83
2023-03-27T04:40:19.147Z,2.17
2023-03-27T04:42:47.324Z,2.33
2023-03-27T04:45:17.950Z,3.00
2023-03-27T04:47:50.391Z,2.63
2023-03-27T04:50:19.304Z,3.63
2023-03-27T04:52:50.314Z,2.88
2023-03-27T04:55:20.305Z,2.40
2023-03-27T04:57:51.121Z,3.13
2023-03-27T05:00:23.250Z,3.20
2023-03-27T05:03:23.000Z,3.60
2023-03-27T05:05:58.842Z,2.40
2023-03-27T05:08:27.747Z,2.72
2023-03-27T05:10:57.552Z,2.10
2023-03-27T05:13:26.714Z,2.70
2023-03-27T05:15:55.200Z,3.47
2023-03-27T05:18:27.895Z,2.17
2023-03-27T05:20:57.524Z,3.47
2023-03-27T05:23:26.220Z,3.60
2023-03-27T05:25:59.973Z,2.20
2023-03-27T05:28:40.169Z,3.83
2023-03-27T05:31:10.883Z,2.35
2023-03-27T05:33:53.018Z,2.70
2023-03-27T05:36:22.860Z,1.83
2023-03-27T05:38:53.474Z,2.05
2023-03-27T05:41:41.726Z,2.75
2023-03-27T05:44:10.888Z,3.13
2023-03-27T05:46:44.010Z,2.35
2023-03-27T05:49:21.827Z,2.95
2023-03-27T05:51:55.441Z,2.60
2023-03-27T05:54:24.404Z,3.10
2023-03-27T05:57:08.876Z,2.22
2023-03-27T05:59:39.810Z,3.13
2023-03-27T06:02:20.681Z,2.60
2023-03-27T06:05:01.484Z,2.50
2023-03-27T06:07:33.672Z,2.67
2023-03-27T06:10:13.808Z,3.15
2023-03-27T06:13:01.817Z,3.15
2023-03-27T06:15:41.030Z,2.53
2023-03-27T06:18:28.812Z,2.47
2023-03-27T06:20:59.737Z,2.03
2023-03-27T06:23:28.544Z,2.40
2023-03-27T06:25:59.122Z,2.45
2023-03-27T06:28:30.259Z,1.80
2023-03-27T06:31:00.047Z,3.30
2023-03-27T06:33:40.777Z,2.33
2023-03-27T06:36:21.457Z,2.97
2023-03-27T06:38:54.618Z,1.80
2023-03-27T06:41:36.792Z,2.20
2023-03-27T06:44:35.252Z,2.25
2023-03-27T06:47:13.606Z,2.17
2023-03-27T06:50:03.083Z,1.88
2023-03-27T06:52:33.936Z,2.72
2023-03-27T06:55:22.211Z,2.72
2023-03-27T06:57:56.679Z,2.50
2023-03-27T07:00:29.268Z,2.22
2023-03-27T07:03:15.611Z,2.80
2023-03-27T07:05:56.258Z,2.35
2023-03-27T07:08:30.102Z,3.13
2023-03-27T07:13:41.582Z,2.50
2023-03-27T07:16:17.829Z,2.47
2023-03-27T07:18:47.356Z,2.25
2023-03-27T07:21:16.944Z,2.65
2023-03-27T07:23:51.949Z,2.92
2023-03-27T07:26:35.316Z,2.20
2023-03-27T07:29:12.256Z,2.70
2023-03-27T07:31:57.496Z,2.28
2023-03-27T07:34:44.161Z,2.28
2023-03-27T07:37:37.949Z,2.65
2023-03-27T07:40:38.832Z,4.00
2023-03-27T07:43:35.560Z,2.67
2023-03-27T07:46:06.293Z,2.50
2023-03-27T07:48:37.040Z,2.50
2023-03-27T07:51:13.711Z,3.28
2023-03-27T07:54:06.060Z,2.75
2023-03-27T07:56:41.247Z,1.77
2023-03-27T08:00:53.939Z,2.50
2023-03-27T08:03:26.267Z,2.35
2023-03-27T08:06:00.310Z,2.78
2023-03-27T08:08:31.696Z,2.40
2023-03-27T08:11:04.015Z,2.10
2023-03-27T08:13:41.181Z,3.50
2023-03-27T08:16:11.381Z,2.28
2023-03-27T08:18:39.825Z,2.85
2023-03-27T08:21:10.600Z,2.17
2023-03-27T08:23:41.250Z,2.53
2023-03-27T08:26:10.413Z,2.00
2023-03-27T08:28:54.317Z,2.63
2023-03-27T08:31:25.969Z,1.85
2023-03-27T08:33:56.543Z,1.95
2023-03-27T08:36:28.976Z,2.22
2023-03-27T08:38:57.957Z,2.60
2023-03-27T08:41:38.805Z,1.75
2023-03-27T08:44:24.441Z,2.08
2023-03-27T08:46:57.598Z,2.50
2023-03-27T08:49:32.290Z,2.42
2023-03-27T08:52:19.620Z,2.13
2023-03-27T08:54:58.525Z,2.22
2023-03-27T08:57:36.563Z,2.10
2023-03-27T09:00:21.235Z,1.80
2023-03-27T09:02:57.968Z,1.98
2023-03-27T09:05:36.560Z,1.80
2023-03-27T09:08:15.236Z,2.20
2023-03-27T09:10:49.055Z,2.17
2023-03-27T09:13:36.520Z,1.90
2023-03-27T09:16:12.280Z,2.35
2023-03-27T09:18:48.099Z,2.17
2023-03-27T09:39:09.568Z,2.45
2023-03-27T09:41:42.751Z,2.30
2023-03-27T09:44:16.192Z,1.42
2023-03-27T09:46:48.825Z,1.95
2023-03-27T09:49:19.392Z,2.35
2023-03-27T09:51:52.094Z,2.85
2023-03-27T09:54:53.705Z,1.88
2023-03-27T09:57:34.053Z,2.75
2023-03-27T10:00:14.791Z,4.10
2023-03-27T10:02:42.880Z,3.97
2023-03-27T10:05:20.323Z,3.03
2023-03-27T10:07:53.359Z,3.55
2023-03-27T10:10:45.945Z,2.00
2023-03-27T10:13:46.427Z,2.22
2023-03-27T10:16:18.694Z,2.65
2023-03-27T10:19:00.163Z,2.72
2023-03-27T10:21:34.695Z,2.35
2023-03-27T10:24:06.597Z,2.20
2023-03-27T10:26:48.814Z,2.00
2023-03-27T10:29:24.425Z,1.60
2023-03-27T10:31:55.782Z,2.28
2023-03-27T10:34:39.925Z,1.95
